Time;durP1;ratioP1;P1;durP2;ratioP2;P2;SDS_P1;SDS_P2;PMS_P1;PMS_P2;Temp;Humidity;BMP_temperature;BMP_pressure;BME280_temperature;BME280_humidity;BME280_pressure;Samples;Min_cycle;Max_cycle;Signal;HPM_P1;HPM_P2
2021/08/31 00:00:58;;;;;;;22.37;15.03;;;;;;;;;;5046546;28;20248;-81
2021/08/31 00:03:25;;;;;;;23.63;14.43;;;;;;;;;;5032636;28;20716;-82
2021/08/31 00:05:52;;;;;;;20.10;13.77;;;;;;;;;;5040264;28;20204;-82
2021/08/31 00:08:19;;;;;;;23.50;14.70;;;;;;;;;;5047216;28;20295;-82
2021/08/31 00:10:46;;;;;;;19.73;13.63;;;;;;;;;;5050860;28;20200;-82
2021/08/31 00:13:15;;;;;;;21.30;14.20;;;;;;;;;;5050152;28;20200;-82
2021/08/31 00:15:43;;;;;;;20.73;14.00;;;;;;;;;;5037604;28;20201;-82
2021/08/31 00:18:11;;;;;;;22.73;13.70;;;;;;;;;;5038531;28;20286;-82
2021/08/31 00:20:38;;;;;;;25.53;13.70;;;;;;;;;;5051771;28;20255;-82
2021/08/31 00:23:07;;;;;;;22.67;13.40;;;;;;;;;;5051774;28;20204;-82
2021/08/31 00:25:34;;;;;;;20.70;13.97;;;;;;;;;;5047332;28;20219;-82
2021/08/31 00:28:01;;;;;;;24.03;14.27;;;;;;;;;;5042092;28;20303;-82
2021/08/31 00:30:29;;;;;;;20.37;13.93;;;;;;;;;;5047859;28;20278;-81
2021/08/31 00:32:57;;;;;;;23.33;16.13;;;;;;;;;;5043243;28;20220;-82
2021/08/31 00:35:24;;;;;;;24.73;16.67;;;;;;;;;;5050902;28;20243;-81
2021/08/31 00:37:52;;;;;;;24.13;17.60;;;;;;;;;;5032909;28;20288;-81
2021/08/31 00:40:19;;;;;;;24.20;17.63;;;;;;;;;;5051213;28;20224;-82
2021/08/31 00:42:46;;;;;;;26.10;16.50;;;;;;;;;;5051941;28;20234;-82
2021/08/31 00:45:13;;;;;;;24.53;17.53;;;;;;;;;;5050636;28;20311;-81
2021/08/31 00:47:40;;;;;;;25.10;17.27;;;;;;;;;;5051959;28;20699;-82
2021/08/31 00:50:10;;;;;;;24.13;16.17;;;;;;;;;;5051831;28;20223;-82
2021/08/31 00:52:39;;;;;;;21.43;15.17;;;;;;;;;;5039087;28;20191;-82
2021/08/31 00:55:07;;;;;;;20.73;14.10;;;;;;;;;;5043447;28;20214;-82
2021/08/31 00:57:34;;;;;;;21.13;14.17;;;;;;;;;;5048894;28;20647;-82
2021/08/31 01:00:02;;;;;;;21.30;14.30;;;;;;;;;;5037313;28;20197;-82
2021/08/31 01:02:29;;;;;;;23.97;14.67;;;;;;;;;;5034606;28;20319;-82
2021/08/31 01:04:56;;;;;;;22.50;15.33;;;;;;;;;;5040427;28;20706;-82
2021/08/31 01:07:25;;;;;;;23.80;16.70;;;;;;;;;;5043271;28;20734;-82
2021/08/31 01:09:53;;;;;;;22.13;16.83;;;;;;;;;;5031804;28;20279;-82
2021/08/31 01:12:20;;;;;;;21.33;16.03;;;;;;;;;;5037411;28;20684;-81
2021/08/31 01:14:48;;;;;;;22.10;17.03;;;;;;;;;;5044118;28;20227;-81
2021/08/31 01:17:15;;;;;;;23.07;17.10;;;;;;;;;;5044528;28;20235;-82
2021/08/31 01:19:42;;;;;;;25.57;16.67;;;;;;;;;;5042706;28;20237;-82
2021/08/31 01:22:11;;;;;;;22.87;15.90;;;;;;;;;;5040023;28;20662;-82
2021/08/31 01:24:39;;;;;;;24.63;17.00;;;;;;;;;;5032700;28;20228;-82
2021/08/31 01:27:08;;;;;;;23.70;17.73;;;;;;;;;;5043757;28;20279;-82
2021/08/31 01:29:36;;;;;;;24.57;18.30;;;;;;;;;;5046038;28;20248;-81
2021/08/31 01:32:04;;;;;;;23.30;17.40;;;;;;;;;;5047359;28;20275;-82
2021/08/31 01:34:31;;;;;;;21.40;16.93;;;;;;;;;;5031461;28;20232;-82
2021/08/31 01:36:58;;;;;;;24.43;18.20;;;;;;;;;;5036927;28;20757;-83
2021/08/31 01:39:25;;;;;;;22.30;17.73;;;;;;;;;;5051542;28;20228;-82
2021/08/31 01:41:53;;;;;;;23.67;18.03;;;;;;;;;;5040503;28;20258;-82
2021/08/31 01:44:21;;;;;;;21.57;17.67;;;;;;;;;;5042956;28;20231;-82
2021/08/31 01:46:49;;;;;;;21.27;16.97;;;;;;;;;;5042467;28;20621;-82
2021/08/31 01:49:16;;;;;;;24.27;18.27;;;;;;;;;;5046564;28;20282;-82
2021/08/31 01:51:43;;;;;;;23.80;17.20;;;;;;;;;;5043694;28;20250;-82
2021/08/31 01:54:10;;;;;;;20.83;17.47;;;;;;;;;;5033749;28;20295;-81
2021/08/31 01:56:39;;;;;;;21.57;17.73;;;;;;;;;;5042505;28;20280;-82
2021/08/31 01:59:06;;;;;;;22.83;17.07;;;;;;;;;;5037094;28;20204;-82
2021/08/31 02:01:35;;;;;;;24.10;17.70;;;;;;;;;;5039804;28;20379;-82
2021/08/31 02:04:04;;;;;;;22.00;17.37;;;;;;;;;;5041556;28;20307;-82
2021/08/31 02:06:31;;;;;;;22.87;17.40;;;;;;;;;;5040844;28;20219;-82
2021/08/31 02:08:58;;;;;;;21.33;17.00;;;;;;;;;;5053650;28;20234;-81
2021/08/31 02:11:25;;;;;;;19.83;16.77;;;;;;;;;;5053003;28;20231;-82
2021/08/31 02:13:53;;;;;;;20.53;17.20;;;;;;;;;;5049992;28;20644;-82
2021/08/31 02:16:20;;;;;;;18.77;16.77;;;;;;;;;;5046987;28;20895;-82
2021/08/31 02:18:48;;;;;;;21.17;17.27;;;;;;;;;;5041809;28;20286;-82
2021/08/31 02:21:15;;;;;;;21.50;15.77;;;;;;;;;;5053369;28;20226;-82
2021/08/31 02:23:43;;;;;;;20.23;16.13;;;;;;;;;;5052505;28;20763;-82
2021/08/31 02:26:10;;;;;;;23.40;16.47;;;;;;;;;;5045353;28;20298;-81
2021/08/31 02:28:37;;;;;;;20.83;16.33;;;;;;;;;;5053026;28;20278;-82
2021/08/31 02:31:04;;;;;;;19.90;16.23;;;;;;;;;;5049389;28;20287;-82
2021/08/31 02:33:32;;;;;;;20.47;15.00;;;;;;;;;;5047453;28;20231;-82
2021/08/31 02:36:00;;;;;;;21.83;16.33;;;;;;;;;;5054040;28;20238;-81
2021/08/31 02:38:27;;;;;;;17.87;14.80;;;;;;;;;;5049434;28;20287;-82
2021/08/31 02:40:55;;;;;;;18.60;13.70;;;;;;;;;;5050857;28;20223;-82
2021/08/31 02:43:22;;;;;;;19.30;14.00;;;;;;;;;;5042666;28;20228;-82
2021/08/31 02:45:49;;;;;;;20.57;13.67;;;;;;;;;;5037266;28;20275;-81
2021/08/31 02:48:16;;;;;;;17.80;13.50;;;;;;;;;;5040982;28;20235;-82
2021/08/31 02:50:44;;;;;;;17.67;13.57;;;;;;;;;;5049662;28;20202;-82
2021/08/31 02:53:12;;;;;;;19.87;13.73;;;;;;;;;;5050918;28;20331;-82
2021/08/31 02:55:39;;;;;;;21.70;13.80;;;;;;;;;;5048229;28;20695;-82
2021/08/31 02:58:06;;;;;;;17.27;12.97;;;;;;;;;;5044740;28;20235;-81
2021/08/31 03:00:36;;;;;;;17.37;13.80;;;;;;;;;;5048664;28;20220;-82
2021/08/31 03:03:03;;;;;;;14.93;12.17;;;;;;;;;;5044275;28;20746;-82
2021/08/31 03:05:30;;;;;;;15.43;11.90;;;;;;;;;;5050685;28;20337;-82
2021/08/31 03:07:58;;;;;;;15.17;12.23;;;;;;;;;;5044089;28;20224;-82
2021/08/31 03:10:26;;;;;;;14.90;12.50;;;;;;;;;;5045114;28;20232;-82
2021/08/31 03:12:54;;;;;;;16.90;12.27;;;;;;;;;;5054148;28;20242;-82
2021/08/31 03:15:21;;;;;;;15.63;12.60;;;;;;;;;;5043788;28;20279;-82
2021/08/31 03:17:50;;;;;;;17.27;12.60;;;;;;;;;;5046871;28;20824;-82
2021/08/31 03:20:18;;;;;;;15.20;12.30;;;;;;;;;;5048705;28;20199;-82
2021/08/31 03:22:45;;;;;;;16.53;12.03;;;;;;;;;;5051662;28;20707;-82
2021/08/31 03:25:12;;;;;;;18.13;12.23;;;;;;;;;;5053367;28;20643;-82
2021/08/31 03:27:41;;;;;;;16.00;11.90;;;;;;;;;;5054240;28;20287;-82
2021/08/31 03:30:08;;;;;;;18.23;13.23;;;;;;;;;;5053416;28;20286;-81
2021/08/31 03:32:38;;;;;;;15.07;11.87;;;;;;;;;;5048703;28;20295;-82
2021/08/31 03:35:05;;;;;;;16.47;13.07;;;;;;;;;;5051424;28;21674;-82
2021/08/31 03:37:32;;;;;;;15.17;12.27;;;;;;;;;;5051258;28;20283;-82
2021/08/31 03:39:59;;;;;;;15.23;11.90;;;;;;;;;;5053288;28;20196;-82
2021/08/31 03:42:27;;;;;;;14.10;11.00;;;;;;;;;;5050922;28;20315;-82
2021/08/31 03:44:55;;;;;;;14.63;11.10;;;;;;;;;;5051913;28;20246;-82
2021/08/31 03:47:22;;;;;;;15.40;10.83;;;;;;;;;;5037252;28;20298;-81
2021/08/31 03:49:50;;;;;;;13.83;11.07;;;;;;;;;;5042379;28;20227;-82
2021/08/31 03:52:17;;;;;;;18.17;11.33;;;;;;;;;;5033889;28;20203;-82
2021/08/31 03:54:44;;;;;;;13.87;11.57;;;;;;;;;;5047353;28;20235;-82
2021/08/31 03:57:11;;;;;;;14.27;10.43;;;;;;;;;;5044941;28;20284;-82
2021/08/31 03:59:38;;;;;;;13.30;9.50;;;;;;;;;;5035563;28;20903;-82
2021/08/31 04:02:08;;;;;;;14.13;9.30;;;;;;;;;;5042247;28;20757;-82
2021/08/31 04:04:35;;;;;;;12.70;9.87;;;;;;;;;;5053021;28;20203;-81
2021/08/31 04:07:02;;;;;;;13.20;9.53;;;;;;;;;;5051232;28;20215;-82
2021/08/31 04:09:29;;;;;;;15.33;8.77;;;;;;;;;;5046834;28;20296;-82
2021/08/31 04:11:56;;;;;;;11.30;7.20;;;;;;;;;;5033133;28;20632;-82
2021/08/31 04:14:24;;;;;;;7.43;6.63;;;;;;;;;;5036249;28;20295;-82
2021/08/31 04:16:51;;;;;;;8.93;6.07;;;;;;;;;;5045889;28;20639;-82
2021/08/31 04:19:19;;;;;;;8.90;5.73;;;;;;;;;;5039293;28;20235;-81
2021/08/31 04:21:47;;;;;;;8.13;5.20;;;;;;;;;;5036492;28;20275;-82
2021/08/31 04:24:14;;;;;;;8.30;4.87;;;;;;;;;;5041023;28;20235;-82
2021/08/31 04:26:41;;;;;;;7.33;5.40;;;;;;;;;;5051803;28;20687;-82
2021/08/31 04:29:08;;;;;;;7.53;5.00;;;;;;;;;;5045381;28;20282;-82
2021/08/31 04:31:36;;;;;;;6.77;4.80;;;;;;;;;;5048231;28;20283;-81
2021/08/31 04:34:03;;;;;;;7.83;5.20;;;;;;;;;;5047600;28;20219;-81
2021/08/31 04:36:31;;;;;;;7.93;4.83;;;;;;;;;;5042657;28;20236;-82
2021/08/31 04:38:59;;;;;;;7.50;5.40;;;;;;;;;;5040601;28;20275;-82
2021/08/31 04:41:26;;;;;;;6.00;4.83;;;;;;;;;;5048064;28;20259;-82
2021/08/31 04:43:53;;;;;;;7.37;4.93;;;;;;;;;;5051131;28;20719;-82
2021/08/31 04:46:20;;;;;;;7.97;5.10;;;;;;;;;;5049076;28;20253;-82
2021/08/31 04:48:47;;;;;;;7.73;4.97;;;;;;;;;;5037491;28;20241;-82
2021/08/31 04:51:15;;;;;;;9.10;5.20;;;;;;;;;;5046423;28;20279;-82
2021/08/31 04:53:43;;;;;;;5.03;4.43;;;;;;;;;;5051525;28;20197;-82
2021/08/31 04:56:10;;;;;;;8.77;5.00;;;;;;;;;;5047823;28;20227;-82
2021/08/31 04:58:37;;;;;;;5.30;4.60;;;;;;;;;;5043113;28;20251;-82
2021/08/31 05:01:05;;;;;;;9.57;5.30;;;;;;;;;;5038163;28;20232;-82
2021/08/31 05:03:33;;;;;;;7.93;5.00;;;;;;;;;;5048758;28;20267;-82
2021/08/31 05:06:00;;;;;;;5.00;4.30;;;;;;;;;;5050149;28;20206;-81
2021/08/31 05:08:28;;;;;;;7.00;5.17;;;;;;;;;;5047950;28;20230;-82
2021/08/31 05:10:56;;;;;;;9.50;4.80;;;;;;;;;;5044349;28;20235;-82
2021/08/31 05:13:23;;;;;;;8.40;5.47;;;;;;;;;;5047064;28;20306;-82
2021/08/31 05:15:51;;;;;;;8.40;5.47;;;;;;;;;;5037817;28;20341;-82
2021/08/31 05:18:18;;;;;;;7.87;5.27;;;;;;;;;;5050188;28;20235;-82
2021/08/31 05:20:45;;;;;;;7.97;5.00;;;;;;;;;;5049102;28;20231;-82
2021/08/31 05:23:12;;;;;;;6.67;5.10;;;;;;;;;;5031726;28;20262;-82
2021/08/31 05:25:40;;;;;;;8.03;5.20;;;;;;;;;;5050348;28;20282;-83
2021/08/31 05:28:08;;;;;;;9.73;5.70;;;;;;;;;;5037740;28;20196;-83
2021/08/31 05:30:36;;;;;;;10.20;5.00;;;;;;;;;;5034398;28;20691;-83
2021/08/31 05:33:03;;;;;;;8.20;5.20;;;;;;;;;;5033173;28;20228;-83
2021/08/31 05:35:30;;;;;;;10.23;5.13;;;;;;;;;;5032696;28;20258;-83
2021/08/31 05:37:57;;;;;;;8.83;5.27;;;;;;;;;;5038209;28;20732;-83
2021/08/31 05:40:24;;;;;;;7.30;5.00;;;;;;;;;;5051054;28;20739;-83
2021/08/31 05:42:52;;;;;;;10.30;5.57;;;;;;;;;;5041787;28;20764;-83
2021/08/31 05:45:20;;;;;;;9.17;5.13;;;;;;;;;;5031619;28;20247;-84
2021/08/31 05:47:47;;;;;;;9.67;5.33;;;;;;;;;;5031577;28;20283;-83
2021/08/31 05:50:15;;;;;;;8.20;5.10;;;;;;;;;;5045439;28;20632;-83
2021/08/31 05:52:42;;;;;;;8.27;4.97;;;;;;;;;;5048953;28;20199;-83
2021/08/31 05:55:09;;;;;;;7.40;4.73;;;;;;;;;;5040692;28;20206;-83
2021/08/31 05:57:37;;;;;;;9.67;4.53;;;;;;;;;;5034105;28;20235;-84
2021/08/31 06:00:04;;;;;;;8.03;4.60;;;;;;;;;;5042718;28;20703;-84
2021/08/31 06:02:33;;;;;;;6.83;4.70;;;;;;;;;;5036584;28;20335;-85
2021/08/31 06:05:00;;;;;;;8.90;4.90;;;;;;;;;;5042624;28;20227;-84
2021/08/31 06:07:34;;;;;;;9.00;4.77;;;;;;;;;;5051874;28;20242;-86
2021/08/31 06:10:01;;;;;;;7.87;4.60;;;;;;;;;;5052038;28;20218;-84
2021/08/31 06:12:28;;;;;;;6.37;4.50;;;;;;;;;;5041656;28;20282;-84
2021/08/31 06:14:55;;;;;;;8.53;4.57;;;;;;;;;;5041166;28;20283;-83
2021/08/31 06:17:23;;;;;;;6.67;4.63;;;;;;;;;;5035717;28;20235;-83
2021/08/31 06:19:51;;;;;;;7.13;4.30;;;;;;;;;;5042612;28;21096;-83
2021/08/31 06:22:19;;;;;;;7.27;4.30;;;;;;;;;;5040272;28;20236;-83
2021/08/31 06:24:46;;;;;;;6.17;4.07;;;;;;;;;;5052952;28;20204;-82
2021/08/31 06:27:13;;;;;;;7.80;4.33;;;;;;;;;;5052141;28;20204;-83
2021/08/31 06:29:41;;;;;;;7.77;3.93;;;;;;;;;;5034937;28;20728;-83
2021/08/31 06:32:08;;;;;;;5.90;3.97;;;;;;;;;;5046663;28;20642;-83
2021/08/31 06:34:35;;;;;;;8.55;3.70;;;;;;;;;;5039316;28;20270;-83
2021/08/31 06:37:04;;;;;;;7.13;3.47;;;;;;;;;;5047362;28;20279;-83
2021/08/31 06:39:31;;;;;;;8.60;3.72;;;;;;;;;;5049948;28;20679;-83
2021/08/31 06:41:59;;;;;;;6.70;3.30;;;;;;;;;;5042263;28;20953;-83
2021/08/31 06:44:26;;;;;;;6.15;3.40;;;;;;;;;;5038094;28;20307;-83
2021/08/31 06:46:53;;;;;;;5.97;3.05;;;;;;;;;;5048855;28;20223;-83
2021/08/31 06:49:20;;;;;;;5.38;3.28;;;;;;;;;;5038596;28;20239;-83
2021/08/31 06:51:47;;;;;;;5.57;3.20;;;;;;;;;;5047497;28;20704;-83
2021/08/31 06:54:16;;;;;;;5.90;3.38;;;;;;;;;;5044845;28;20269;-83
2021/08/31 06:56:43;;;;;;;6.55;3.15;;;;;;;;;;5043114;28;20207;-82
2021/08/31 06:59:10;;;;;;;8.52;3.00;;;;;;;;;;5041993;28;20658;-83
2021/08/31 07:01:37;;;;;;;5.50;3.03;;;;;;;;;;5046719;28;20295;-83
2021/08/31 07:04:05;;;;;;;8.10;3.10;;;;;;;;;;5054056;28;20314;-83
2021/08/31 07:06:32;;;;;;;5.53;3.00;;;;;;;;;;5045333;28;20220;-83
2021/08/31 07:08:59;;;;;;;4.97;2.95;;;;;;;;;;5047819;28;20228;-83
2021/08/31 07:11:28;;;;;;;5.75;3.25;;;;;;;;;;5038296;28;20210;-84
2021/08/31 07:13:55;;;;;;;6.93;3.17;;;;;;;;;;5043472;28;20271;-84
2021/08/31 07:16:23;;;;;;;9.65;3.10;;;;;;;;;;5054330;28;20223;-83
2021/08/31 07:18:50;;;;;;;5.53;3.03;;;;;;;;;;5050567;28;20304;-83
2021/08/31 07:21:17;;;;;;;8.15;3.15;;;;;;;;;;5043252;28;20315;-84
2021/08/31 07:23:45;;;;;;;6.65;3.35;;;;;;;;;;5054412;28;20219;-83
2021/08/31 07:26:12;;;;;;;5.78;3.20;;;;;;;;;;5039746;28;20235;-83
2021/08/31 07:28:40;;;;;;;4.78;2.75;;;;;;;;;;5039911;28;20283;-83
2021/08/31 07:31:07;;;;;;;5.78;3.33;;;;;;;;;;5039233;28;20224;-83
2021/08/31 07:33:35;;;;;;;5.63;3.08;;;;;;;;;;5052397;28;20382;-83
2021/08/31 07:36:02;;;;;;;5.63;3.10;;;;;;;;;;5036851;28;20200;-83
2021/08/31 07:38:29;;;;;;;7.32;3.08;;;;;;;;;;5042886;28;20313;-83
2021/08/31 07:40:56;;;;;;;4.25;3.20;;;;;;;;;;5044682;28;20266;-83
2021/08/31 07:43:24;;;;;;;7.70;3.10;;;;;;;;;;5053623;28;20250;-83
2021/08/31 07:45:53;;;;;;;4.78;3.13;;;;;;;;;;5038169;28;20258;-83
2021/08/31 07:48:20;;;;;;;5.72;2.90;;;;;;;;;;5045851;28;20283;-84
2021/08/31 07:50:47;;;;;;;5.00;2.83;;;;;;;;;;5053738;28;20223;-84
2021/08/31 07:53:15;;;;;;;4.93;3.00;;;;;;;;;;5036347;28;20232;-83
2021/08/31 07:55:42;;;;;;;6.63;3.13;;;;;;;;;;5036608;28;20228;-84
2021/08/31 07:58:09;;;;;;;6.97;3.20;;;;;;;;;;5046982;28;20204;-85
2021/08/31 08:00:39;;;;;;;5.53;3.33;;;;;;;;;;5051837;28;20659;-85
2021/08/31 08:03:08;;;;;;;5.38;3.10;;;;;;;;;;5054118;28;20805;-85
2021/08/31 08:05:35;;;;;;;4.97;3.13;;;;;;;;;;5037390;28;20731;-84
2021/08/31 08:08:02;;;;;;;6.13;2.92;;;;;;;;;;5042316;28;20227;-84
2021/08/31 08:10:30;;;;;;;7.03;2.88;;;;;;;;;;5046649;28;20637;-84
2021/08/31 08:12:57;;;;;;;4.53;2.88;;;;;;;;;;5047894;28;20220;-86
2021/08/31 08:15:24;;;;;;;7.90;3.00;;;;;;;;;;5043035;28;20200;-85
2021/08/31 08:17:53;;;;;;;6.13;2.63;;;;;;;;;;5054163;28;20231;-85
2021/08/31 08:20:22;;;;;;;7.13;3.20;;;;;;;;;;5043976;28;20694;-84
2021/08/31 08:22:52;;;;;;;6.63;3.00;;;;;;;;;;5041781;28;20200;-84
2021/08/31 08:25:19;;;;;;;5.25;3.00;;;;;;;;;;5046854;28;20200;-85
2021/08/31 08:27:47;;;;;;;5.00;3.00;;;;;;;;;;5040772;28;20699;-85
2021/08/31 08:30:14;;;;;;;5.03;2.97;;;;;;;;;;5041683;28;20626;-86
2021/08/31 08:32:42;;;;;;;5.53;3.15;;;;;;;;;;5048372;28;20224;-86
2021/08/31 08:35:11;;;;;;;7.63;3.00;;;;;;;;;;5049028;28;20204;-86
2021/08/31 08:38:25;;;;;;;5.75;3.25;;;;;;;;;;5041839;28;20281;-85
2021/08/31 08:41:04;;;;;;;5.57;3.25;;;;;;;;;;5034477;28;20630;-87
2021/08/31 08:43:32;;;;;;;6.13;3.20;;;;;;;;;;5038665;28;20309;-85
2021/08/31 08:46:02;;;;;;;4.88;3.00;;;;;;;;;;5046949;28;20277;-85
2021/08/31 08:48:29;;;;;;;6.97;3.30;;;;;;;;;;5048290;28;20258;-85
2021/08/31 08:50:57;;;;;;;7.25;3.10;;;;;;;;;;5045505;28;20196;-85
2021/08/31 08:53:26;;;;;;;7.35;2.70;;;;;;;;;;5049402;28;20286;-86
2021/08/31 08:55:58;;;;;;;6.70;3.30;;;;;;;;;;5048619;28;20668;-84
2021/08/31 08:58:26;;;;;;;5.20;3.17;;;;;;;;;;5047814;28;20207;-85
2021/08/31 09:00:55;;;;;;;4.15;2.80;;;;;;;;;;5043273;28;20787;-85
2021/08/31 09:03:24;;;;;;;7.00;3.00;;;;;;;;;;5049870;28;20330;-86
2021/08/31 09:06:04;;;;;;;6.40;2.97;;;;;;;;;;5053263;28;20196;-86
2021/08/31 09:08:31;;;;;;;6.72;2.97;;;;;;;;;;5041993;28;20282;-86
2021/08/31 09:10:58;;;;;;;4.40;2.97;;;;;;;;;;5038818;28;20236;-86
2021/08/31 09:13:27;;;;;;;5.30;3.38;;;;;;;;;;5040086;28;20292;-85
2021/08/31 09:15:54;;;;;;;5.95;3.42;;;;;;;;;;5047105;28;20234;-85
2021/08/31 09:18:25;;;;;;;8.50;3.15;;;;;;;;;;5041817;28;20220;-86
2021/08/31 09:21:01;;;;;;;5.90;3.20;;;;;;;;;;5049216;28;20224;-86
2021/08/31 09:23:29;;;;;;;7.22;3.38;;;;;;;;;;5042658;28;20277;-87
2021/08/31 09:25:59;;;;;;;5.07;3.03;;;;;;;;;;5043797;28;20279;-87
2021/08/31 09:28:29;;;;;;;8.27;3.30;;;;;;;;;;5044246;28;20234;-86
2021/08/31 09:31:04;;;;;;;5.88;3.40;;;;;;;;;;5047648;28;20277;-84
2021/08/31 09:33:32;;;;;;;6.32;3.80;;;;;;;;;;5038582;28;20196;-85
2021/08/31 09:36:09;;;;;;;4.22;3.35;;;;;;;;;;5044393;28;20295;-85
2021/08/31 09:38:40;;;;;;;5.88;3.35;;;;;;;;;;5041083;28;20242;-86
2021/08/31 09:41:07;;;;;;;4.38;3.55;;;;;;;;;;5052297;28;20271;-85
2021/08/31 09:43:36;;;;;;;7.70;4.10;;;;;;;;;;5041437;28;20247;-84
2021/08/31 09:46:03;;;;;;;6.18;3.42;;;;;;;;;;5053839;28;20238;-84
2021/08/31 09:48:30;;;;;;;5.72;3.22;;;;;;;;;;5051046;28;20203;-85
2021/08/31 09:50:58;;;;;;;6.30;3.88;;;;;;;;;;5048145;28;20265;-85
2021/08/31 09:53:26;;;;;;;5.88;3.53;;;;;;;;;;5044720;28;20204;-84
2021/08/31 09:56:06;;;;;;;4.93;3.40;;;;;;;;;;5047759;28;20283;-84
2021/08/31 09:58:34;;;;;;;6.80;3.97;;;;;;;;;;5040719;28;20299;-84
2021/08/31 10:01:03;;;;;;;7.50;4.40;;;;;;;;;;5035164;28;20286;-84
2021/08/31 10:03:30;;;;;;;6.40;4.22;;;;;;;;;;5042006;28;20633;-84
2021/08/31 10:05:59;;;;;;;9.32;3.63;;;;;;;;;;5037054;28;20219;-84
2021/08/31 10:08:28;;;;;;;6.35;4.10;;;;;;;;;;5040979;28;20199;-82
2021/08/31 10:10:56;;;;;;;7.85;3.85;;;;;;;;;;5032016;28;20200;-81
2021/08/31 10:13:24;;;;;;;8.32;4.20;;;;;;;;;;5040290;28;20283;-83
2021/08/31 10:15:52;;;;;;;7.82;4.03;;;;;;;;;;5042609;28;20253;-83
2021/08/31 10:18:21;;;;;;;8.02;4.60;;;;;;;;;;5046370;28;20199;-84
2021/08/31 10:20:49;;;;;;;6.60;4.03;;;;;;;;;;5037460;28;20220;-83
2021/08/31 10:23:18;;;;;;;5.68;3.88;;;;;;;;;;5036078;28;20212;-85
2021/08/31 10:25:45;;;;;;;6.35;3.92;;;;;;;;;;5037009;28;20722;-84
2021/08/31 10:28:26;;;;;;;7.43;4.18;;;;;;;;;;5043775;28;20633;-84
2021/08/31 10:30:53;;;;;;;7.18;4.40;;;;;;;;;;5055048;28;20246;-83
2021/08/31 10:33:32;;;;;;;8.10;4.20;;;;;;;;;;5047318;28;20290;-84
2021/08/31 10:36:00;;;;;;;7.97;5.00;;;;;;;;;;5050523;28;20570;-83
2021/08/31 10:38:44;;;;;;;6.32;4.63;;;;;;;;;;5049219;28;20284;-81
2021/08/31 10:41:30;;;;;;;6.85;4.47;;;;;;;;;;5034598;28;20283;-83
2021/08/31 10:43:57;;;;;;;7.20;4.13;;;;;;;;;;5036872;28;20566;-83
2021/08/31 10:46:25;;;;;;;8.40;4.88;;;;;;;;;;5051893;28;20291;-82
2021/08/31 10:49:01;;;;;;;8.77;5.13;;;;;;;;;;5048078;28;20284;-83
2021/08/31 10:51:29;;;;;;;8.25;4.85;;;;;;;;;;5045927;28;20290;-83
2021/08/31 10:53:56;;;;;;;7.43;5.20;;;;;;;;;;5053704;28;20200;-83
2021/08/31 10:56:27;;;;;;;6.38;5.15;;;;;;;;;;5052206;28;20227;-82
2021/08/31 10:58:55;;;;;;;8.00;5.32;;;;;;;;;;5049942;28;20266;-82
2021/08/31 11:01:23;;;;;;;9.27;5.57;;;;;;;;;;5038772;28;20232;-83
2021/08/31 11:04:49;;;;;;;8.60;5.10;;;;;;;;;;5089828;28;20951;-83
2021/08/31 11:07:18;;;;;;;6.82;5.10;;;;;;;;;;5090615;28;20230;-83
2021/08/31 11:09:46;;;;;;;9.55;5.68;;;;;;;;;;5087219;28;20209;-83
2021/08/31 11:12:16;;;;;;;10.25;6.03;;;;;;;;;;5084680;28;20293;-85
2021/08/31 11:14:46;;;;;;;8.40;5.50;;;;;;;;;;5091144;28;20238;-84
2021/08/31 11:17:13;;;;;;;7.00;5.70;;;;;;;;;;5088156;28;20286;-84
2021/08/31 11:19:40;;;;;;;7.25;5.60;;;;;;;;;;5086810;28;20238;-84
2021/08/31 11:22:09;;;;;;;8.43;5.80;;;;;;;;;;5089072;28;20233;-83
2021/08/31 11:24:36;;;;;;;9.32;6.38;;;;;;;;;;5084724;28;20757;-84
2021/08/31 11:27:06;;;;;;;10.00;6.97;;;;;;;;;;5088494;28;20654;-83
2021/08/31 11:29:33;;;;;;;10.98;6.53;;;;;;;;;;5085870;28;20226;-83
2021/08/31 11:32:01;;;;;;;8.25;6.60;;;;;;;;;;5087590;28;20229;-82
2021/08/31 11:34:29;;;;;;;11.32;6.43;;;;;;;;;;5088709;28;20201;-83
2021/08/31 11:37:02;;;;;;;7.28;6.20;;;;;;;;;;5088030;28;20194;-84
2021/08/31 11:39:31;;;;;;;9.63;6.30;;;;;;;;;;5087903;28;20658;-86
2021/08/31 11:41:58;;;;;;;9.45;5.93;;;;;;;;;;5087231;28;20226;-84
2021/08/31 11:44:25;;;;;;;7.38;6.10;;;;;;;;;;5086135;28;20305;-83
2021/08/31 11:46:53;;;;;;;7.72;6.45;;;;;;;;;;5087162;28;20194;-83
2021/08/31 11:49:21;;;;;;;10.45;6.60;;;;;;;;;;5086314;28;20297;-83
2021/08/31 11:52:00;;;;;;;7.93;5.75;;;;;;;;;;5087461;28;20726;-83
2021/08/31 11:54:29;;;;;;;10.50;6.10;;;;;;;;;;5087258;28;20214;-83
2021/08/31 11:56:59;;;;;;;8.70;6.10;;;;;;;;;;5087802;28;20285;-85
2021/08/31 11:59:42;;;;;;;10.23;6.03;;;;;;;;;;5086020;28;20541;-84
2021/08/31 12:02:17;;;;;;;7.25;5.53;;;;;;;;;;5082453;28;20226;-85
2021/08/31 12:04:45;;;;;;;9.43;5.90;;;;;;;;;;5072751;28;20222;-85
2021/08/31 12:07:13;;;;;;;6.72;5.88;;;;;;;;;;5072795;28;20207;-85
2021/08/31 12:09:43;;;;;;;8.95;5.57;;;;;;;;;;5077630;28;20467;-84
2021/08/31 12:12:12;;;;;;;8.05;5.35;;;;;;;;;;5068428;28;20187;-85
2021/08/31 12:14:40;;;;;;;7.75;5.50;;;;;;;;;;5072424;28;20199;-85
2021/08/31 12:17:08;;;;;;;7.07;5.15;;;;;;;;;;5064879;28;20242;-85
2021/08/31 12:19:38;;;;;;;8.63;5.45;;;;;;;;;;5054436;28;20717;-84
2021/08/31 12:22:09;;;;;;;8.10;4.78;;;;;;;;;;5062412;28;20195;-81
2021/08/31 12:24:37;;;;;;;6.43;5.18;;;;;;;;;;5068727;28;20715;-80
2021/08/31 12:27:15;;;;;;;8.48;5.30;;;;;;;;;;5061001;28;20253;-81
2021/08/31 12:29:46;;;;;;;7.28;5.13;;;;;;;;;;5063942;28;20213;-80
2021/08/31 12:32:14;;;;;;;10.48;5.32;;;;;;;;;;5062023;28;20199;-81
2021/08/31 12:34:41;;;;;;;9.13;5.88;;;;;;;;;;5072116;28;20619;-80
2021/08/31 12:37:23;;;;;;;8.88;5.53;;;;;;;;;;5065761;28;20234;-80
2021/08/31 12:39:50;;;;;;;7.45;5.43;;;;;;;;;;5062321;28;20190;-81
2021/08/31 12:42:19;;;;;;;8.30;5.75;;;;;;;;;;5055067;28;20764;-80
2021/08/31 12:44:50;;;;;;;7.95;5.72;;;;;;;;;;5068512;28;20307;-79
2021/08/31 12:47:20;;;;;;;10.38;5.25;;;;;;;;;;5056563;28;20199;-79
2021/08/31 12:49:47;;;;;;;7.45;5.20;;;;;;;;;;5064331;28;20196;-80
2021/08/31 12:52:15;;;;;;;9.95;5.25;;;;;;;;;;5069410;28;20286;-79
2021/08/31 12:54:43;;;;;;;7.65;4.95;;;;;;;;;;5054405;28;20202;-79
2021/08/31 12:57:10;;;;;;;6.82;5.22;;;;;;;;;;5053341;28;20200;-80
2021/08/31 12:59:39;;;;;;;7.10;4.93;;;;;;;;;;5064948;28;20226;-79
2021/08/31 13:02:08;;;;;;;7.50;4.78;;;;;;;;;;5067486;28;20254;-79
2021/08/31 13:04:36;;;;;;;8.20;5.30;;;;;;;;;;5061322;28;20232;-79
2021/08/31 13:07:04;;;;;;;8.68;5.25;;;;;;;;;;5053433;28;20290;-79
2021/08/31 13:09:31;;;;;;;7.78;4.72;;;;;;;;;;5055909;28;20358;-79
2021/08/31 13:11:58;;;;;;;7.15;4.70;;;;;;;;;;5053269;28;20282;-79
2021/08/31 13:14:27;;;;;;;10.68;4.68;;;;;;;;;;5053499;28;20224;-79
2021/08/31 13:16:56;;;;;;;8.85;5.13;;;;;;;;;;5053200;28;21611;-79
2021/08/31 13:19:24;;;;;;;11.07;5.05;;;;;;;;;;5053883;28;20195;-79
2021/08/31 13:21:52;;;;;;;6.93;4.88;;;;;;;;;;5058123;28;20229;-79
2021/08/31 13:24:19;;;;;;;6.32;4.80;;;;;;;;;;5064233;28;20219;-79
2021/08/31 13:26:47;;;;;;;7.97;4.60;;;;;;;;;;5062869;28;20644;-79
2021/08/31 13:29:15;;;;;;;8.23;4.10;;;;;;;;;;5060256;28;20275;-79
2021/08/31 13:31:43;;;;;;;7.85;4.38;;;;;;;;;;5067174;28;20294;-79
2021/08/31 13:34:12;;;;;;;6.18;4.05;;;;;;;;;;5061452;28;20227;-79
2021/08/31 13:36:39;;;;;;;6.93;4.43;;;;;;;;;;5051857;28;20231;-79
2021/08/31 13:39:07;;;;;;;5.65;4.07;;;;;;;;;;5051506;28;20625;-79
2021/08/31 13:41:35;;;;;;;5.88;4.22;;;;;;;;;;5052720;28;20294;-79
2021/08/31 13:44:02;;;;;;;7.15;4.60;;;;;;;;;;5051707;28;20302;-79
2021/08/31 13:46:31;;;;;;;6.53;4.70;;;;;;;;;;5051569;28;20282;-79
2021/08/31 13:48:59;;;;;;;5.85;4.60;;;;;;;;;;5066267;28;20228;-79
2021/08/31 13:51:28;;;;;;;6.40;3.97;;;;;;;;;;5064260;28;20200;-79
2021/08/31 13:53:56;;;;;;;6.60;4.50;;;;;;;;;;5054629;28;20210;-80
2021/08/31 13:56:23;;;;;;;6.30;4.82;;;;;;;;;;5059470;28;20769;-80
2021/08/31 13:58:50;;;;;;;8.20;4.82;;;;;;;;;;5063637;28;20254;-84
2021/08/31 14:01:17;;;;;;;6.13;4.10;;;;;;;;;;5061220;28;20222;-84
2021/08/31 14:03:45;;;;;;;6.22;4.45;;;;;;;;;;5068323;28;20288;-84
2021/08/31 14:06:13;;;;;;;7.50;4.47;;;;;;;;;;5058977;28;20212;-85
2021/08/31 14:08:43;;;;;;;5.65;3.90;;;;;;;;;;5069224;28;20223;-84
2021/08/31 14:11:11;;;;;;;7.70;4.32;;;;;;;;;;5061250;28;20192;-84
2021/08/31 14:13:38;;;;;;;7.20;4.22;;;;;;;;;;5060146;28;20270;-84
2021/08/31 14:16:06;;;;;;;6.20;4.22;;;;;;;;;;5058037;28;20208;-84
2021/08/31 14:18:33;;;;;;;7.18;4.28;;;;;;;;;;5061568;28;20195;-84
2021/08/31 14:21:00;;;;;;;6.97;4.22;;;;;;;;;;5059256;28;20234;-84
2021/08/31 14:23:27;;;;;;;5.57;4.28;;;;;;;;;;5061518;28;20227;-83
2021/08/31 14:25:56;;;;;;;7.63;4.60;;;;;;;;;;5064952;28;20286;-83
2021/08/31 14:28:23;;;;;;;6.30;4.50;;;;;;;;;;5063015;28;20577;-82
2021/08/31 14:30:50;;;;;;;6.82;4.10;;;;;;;;;;5067670;28;20261;-83
2021/08/31 14:33:17;;;;;;;5.90;3.80;;;;;;;;;;5055600;28;20233;-83
2021/08/31 14:35:45;;;;;;;7.13;4.38;;;;;;;;;;5060447;28;20293;-84
2021/08/31 14:38:12;;;;;;;6.03;4.15;;;;;;;;;;5067321;28;20283;-85
2021/08/31 14:40:39;;;;;;;7.22;4.45;;;;;;;;;;5073293;28;20291;-84
2021/08/31 14:43:08;;;;;;;5.13;4.15;;;;;;;;;;5062002;28;20722;-84